sensor_id;sensor_type;location;lat;lon;timestamp;temperature;humidity
37678;DHT22;23517;50.390;8.616;2022-12-10T00:01:32;-0.10;73.70
37678;DHT22;23517;50.390;8.616;2022-12-10T00:04:00;0.00;73.40
37678;DHT22;23517;50.390;8.616;2022-12-10T00:06:30;0.00;70.40
37678;DHT22;23517;50.390;8.616;2022-12-10T00:08:59;0.00;70.90
37678;DHT22;23517;50.390;8.616;2022-12-10T00:11:27;0.00;70.70
37678;DHT22;23517;50.390;8.616;2022-12-10T00:13:55;0.10;70.90
37678;DHT22;23517;50.390;8.616;2022-12-10T00:16:24;0.10;71.20
37678;DHT22;23517;50.390;8.616;2022-12-10T00:18:52;0.10;70.10
37678;DHT22;23517;50.390;8.616;2022-12-10T00:21:25;0.10;69.20
37678;DHT22;23517;50.390;8.616;2022-12-10T00:23:54;0.10;69.20
37678;DHT22;23517;50.390;8.616;2022-12-10T00:26:24;0.10;69.90
37678;DHT22;23517;50.390;8.616;2022-12-10T00:28:53;0.10;70.30
37678;DHT22;23517;50.390;8.616;2022-12-10T00:31:29;0.10;70.70
37678;DHT22;23517;50.390;8.616;2022-12-10T00:33:58;0.10;70.20
37678;DHT22;23517;50.390;8.616;2022-12-10T00:36:32;0.10;70.60
37678;DHT22;23517;50.390;8.616;2022-12-10T00:39:01;0.00;70.30
37678;DHT22;23517;50.390;8.616;2022-12-10T00:41:29;0.00;70.00
37678;DHT22;23517;50.390;8.616;2022-12-10T00:43:56;0.00;69.60
37678;DHT22;23517;50.390;8.616;2022-12-10T00:46:23;0.10;68.80
37678;DHT22;23517;50.390;8.616;2022-12-10T00:48:50;0.10;68.20
37678;DHT22;23517;50.390;8.616;2022-12-10T00:51:21;0.10;68.40
37678;DHT22;23517;50.390;8.616;2022-12-10T00:53:50;0.20;67.90
37678;DHT22;23517;50.390;8.616;2022-12-10T00:56:23;0.20;67.80
37678;DHT22;23517;50.390;8.616;2022-12-10T00:58:52;0.20;67.90
37678;DHT22;23517;50.390;8.616;2022-12-10T01:01:22;0.20;68.00
37678;DHT22;23517;50.390;8.616;2022-12-10T01:03:58;0.30;68.00
37678;DHT22;23517;50.390;8.616;2022-12-10T01:06:35;0.30;68.20
37678;DHT22;23517;50.390;8.616;2022-12-10T01:09:06;0.30;66.90
37678;DHT22;23517;50.390;8.616;2022-12-10T01:11:36;0.30;66.20
37678;DHT22;23517;50.390;8.616;2022-12-10T01:14:05;0.30;65.40
37678;DHT22;23517;50.390;8.616;2022-12-10T01:16:35;0.20;66.00
37678;DHT22;23517;50.390;8.616;2022-12-10T01:19:03;0.20;66.70
37678;DHT22;23517;50.390;8.616;2022-12-10T01:21:30;0.30;67.80
37678;DHT22;23517;50.390;8.616;2022-12-10T01:23:57;0.30;66.70
37678;DHT22;23517;50.390;8.616;2022-12-10T01:26:27;0.20;66.30
37678;DHT22;23517;50.390;8.616;2022-12-10T01:28:56;0.20;65.90
37678;DHT22;23517;50.390;8.616;2022-12-10T01:31:29;0.20;65.60
37678;DHT22;23517;50.390;8.616;2022-12-10T01:33:58;0.20;65.80
37678;DHT22;23517;50.390;8.616;2022-12-10T01:36:28;0.20;65.60
37678;DHT22;23517;50.390;8.616;2022-12-10T01:38:57;0.20;64.70
37678;DHT22;23517;50.390;8.616;2022-12-10T01:41:40;0.30;63.90
37678;DHT22;23517;50.390;8.616;2022-12-10T01:46:38;0.30;63.60
37678;DHT22;23517;50.390;8.616;2022-12-10T01:49:09;0.30;63.80
37678;DHT22;23517;50.390;8.616;2022-12-10T01:51:40;0.30;63.50
37678;DHT22;23517;50.390;8.616;2022-12-10T01:54:12;0.30;63.90
37678;DHT22;23517;50.390;8.616;2022-12-10T01:56:44;0.40;63.70
37678;DHT22;23517;50.390;8.616;2022-12-10T01:59:12;0.30;63.60
37678;DHT22;23517;50.390;8.616;2022-12-10T02:05:22;0.40;63.60
37678;DHT22;23517;50.390;8.616;2022-12-10T02:11:17;0.40;63.90
37678;DHT22;23517;50.390;8.616;2022-12-10T02:16:33;0.40;63.90
37678;DHT22;23517;50.390;8.616;2022-12-10T02:21:54;0.50;64.20
37678;DHT22;23517;50.390;8.616;2022-12-10T02:24:27;0.50;64.40
37678;DHT22;23517;50.390;8.616;2022-12-10T02:29:37;0.50;64.40
37678;DHT22;23517;50.390;8.616;2022-12-10T02:32:20;0.50;64.40
37678;DHT22;23517;50.390;8.616;2022-12-10T02:34:54;0.50;64.60
37678;DHT22;23517;50.390;8.616;2022-12-10T02:37:34;0.50;64.30
37678;DHT22;23517;50.390;8.616;2022-12-10T02:40:07;0.60;64.50
37678;DHT22;23517;50.390;8.616;2022-12-10T02:42:38;0.60;64.10
37678;DHT22;23517;50.390;8.616;2022-12-10T02:45:08;0.50;64.20
37678;DHT22;23517;50.390;8.616;2022-12-10T02:47:35;0.60;64.40
37678;DHT22;23517;50.390;8.616;2022-12-10T02:50:03;0.60;64.30
37678;DHT22;23517;50.390;8.616;2022-12-10T02:52:30;0.60;64.20
37678;DHT22;23517;50.390;8.616;2022-12-10T02:54:56;0.60;64.60
37678;DHT22;23517;50.390;8.616;2022-12-10T02:57:31;0.60;64.10
37678;DHT22;23517;50.390;8.616;2022-12-10T03:00:08;0.60;64.10
37678;DHT22;23517;50.390;8.616;2022-12-10T03:05:59;0.60;64.40
37678;DHT22;23517;50.390;8.616;2022-12-10T03:08:47;0.70;64.10
37678;DHT22;23517;50.390;8.616;2022-12-10T03:11:19;0.70;64.20
37678;DHT22;23517;50.390;8.616;2022-12-10T03:14:02;0.70;63.90
37678;DHT22;23517;50.390;8.616;2022-12-10T03:16:35;0.70;64.00
37678;DHT22;23517;50.390;8.616;2022-12-10T03:19:11;0.70;63.80
37678;DHT22;23517;50.390;8.616;2022-12-10T03:21:41;0.80;63.60
37678;DHT22;23517;50.390;8.616;2022-12-10T03:24:10;0.70;63.50
37678;DHT22;23517;50.390;8.616;2022-12-10T03:26:38;0.70;63.60
37678;DHT22;23517;50.390;8.616;2022-12-10T03:29:15;0.80;63.60
37678;DHT22;23517;50.390;8.616;2022-12-10T03:31:45;0.70;63.90
37678;DHT22;23517;50.390;8.616;2022-12-10T03:34:13;0.70;63.40
37678;DHT22;23517;50.390;8.616;2022-12-10T03:36:41;0.70;63.40
37678;DHT22;23517;50.390;8.616;2022-12-10T03:39:08;0.70;63.40
37678;DHT22;23517;50.390;8.616;2022-12-10T03:41:35;0.70;63.60
37678;DHT22;23517;50.390;8.616;2022-12-10T03:44:02;0.70;63.40
37678;DHT22;23517;50.390;8.616;2022-12-10T03:46:30;0.70;63.20
37678;DHT22;23517;50.390;8.616;2022-12-10T03:48:59;0.70;63.80
37678;DHT22;23517;50.390;8.616;2022-12-10T03:51:27;0.70;63.70
37678;DHT22;23517;50.390;8.616;2022-12-10T03:53:53;0.70;63.60
37678;DHT22;23517;50.390;8.616;2022-12-10T03:56:21;0.70;63.90
37678;DHT22;23517;50.390;8.616;2022-12-10T03:58:48;0.60;64.00
37678;DHT22;23517;50.390;8.616;2022-12-10T04:01:15;0.60;63.90
37678;DHT22;23517;50.390;8.616;2022-12-10T04:03:43;0.60;63.70
37678;DHT22;23517;50.390;8.616;2022-12-10T04:06:14;0.60;63.90
37678;DHT22;23517;50.390;8.616;2022-12-10T04:08:43;0.60;64.10
37678;DHT22;23517;50.390;8.616;2022-12-10T04:11:10;0.60;65.20
37678;DHT22;23517;50.390;8.616;2022-12-10T04:13:38;0.60;64.70
37678;DHT22;23517;50.390;8.616;2022-12-10T04:16:25;0.60;64.00
37678;DHT22;23517;50.390;8.616;2022-12-10T04:18:57;0.60;64.50
37678;DHT22;23517;50.390;8.616;2022-12-10T04:21:30;0.50;64.80
37678;DHT22;23517;50.390;8.616;2022-12-10T04:24:20;0.60;64.60
37678;DHT22;23517;50.390;8.616;2022-12-10T04:27:13;0.60;65.60
37678;DHT22;23517;50.390;8.616;2022-12-10T04:29:44;0.60;65.00
37678;DHT22;23517;50.390;8.616;2022-12-10T04:32:11;0.60;64.60
37678;DHT22;23517;50.390;8.616;2022-12-10T04:34:38;0.60;64.60
37678;DHT22;23517;50.390;8.616;2022-12-10T04:37:05;0.60;64.90
37678;DHT22;23517;50.390;8.616;2022-12-10T04:39:34;0.60;65.00
37678;DHT22;23517;50.390;8.616;2022-12-10T04:42:01;0.50;64.90
37678;DHT22;23517;50.390;8.616;2022-12-10T04:44:28;0.50;65.60
37678;DHT22;23517;50.390;8.616;2022-12-10T04:46:54;0.60;66.30
37678;DHT22;23517;50.390;8.616;2022-12-10T04:49:22;0.60;65.40
37678;DHT22;23517;50.390;8.616;2022-12-10T04:51:48;0.60;64.80
37678;DHT22;23517;50.390;8.616;2022-12-10T04:54:16;0.60;65.50
37678;DHT22;23517;50.390;8.616;2022-12-10T04:56:43;0.60;65.40
37678;DHT22;23517;50.390;8.616;2022-12-10T04:59:12;0.60;65.30
37678;DHT22;23517;50.390;8.616;2022-12-10T05:01:39;0.60;64.90
37678;DHT22;23517;50.390;8.616;2022-12-10T05:04:08;0.60;64.90
37678;DHT22;23517;50.390;8.616;2022-12-10T05:06:36;0.70;63.90
37678;DHT22;23517;50.390;8.616;2022-12-10T05:09:10;0.70;64.00
37678;DHT22;23517;50.390;8.616;2022-12-10T05:11:38;0.60;64.50
37678;DHT22;23517;50.390;8.616;2022-12-10T05:14:10;0.60;64.20
37678;DHT22;23517;50.390;8.616;2022-12-10T05:16:37;0.60;64.30
37678;DHT22;23517;50.390;8.616;2022-12-10T05:19:04;0.60;64.00
37678;DHT22;23517;50.390;8.616;2022-12-10T05:21:31;0.60;64.20
37678;DHT22;23517;50.390;8.616;2022-12-10T05:24:18;0.60;64.10
37678;DHT22;23517;50.390;8.616;2022-12-10T05:26:45;0.60;64.40
37678;DHT22;23517;50.390;8.616;2022-12-10T05:29:13;0.60;64.30
37678;DHT22;23517;50.390;8.616;2022-12-10T05:31:39;0.60;64.50
37678;DHT22;23517;50.390;8.616;2022-12-10T05:34:06;0.60;64.80
37678;DHT22;23517;50.390;8.616;2022-12-10T05:36:34;0.60;64.90
37678;DHT22;23517;50.390;8.616;2022-12-10T05:39:01;0.60;64.90
37678;DHT22;23517;50.390;8.616;2022-12-10T05:41:30;0.60;65.00
37678;DHT22;23517;50.390;8.616;2022-12-10T05:43:58;0.60;64.80
37678;DHT22;23517;50.390;8.616;2022-12-10T05:46:30;0.50;64.90
37678;DHT22;23517;50.390;8.616;2022-12-10T05:49:00;0.40;64.80
37678;DHT22;23517;50.390;8.616;2022-12-10T05:51:30;0.40;65.50
37678;DHT22;23517;50.390;8.616;2022-12-10T05:53:59;0.40;64.80
37678;DHT22;23517;50.390;8.616;2022-12-10T05:56:27;0.40;64.80
37678;DHT22;23517;50.390;8.616;2022-12-10T05:58:58;0.40;65.20
37678;DHT22;23517;50.390;8.616;2022-12-10T06:01:29;0.40;65.60
37678;DHT22;23517;50.390;8.616;2022-12-10T06:03:59;0.50;64.90
37678;DHT22;23517;50.390;8.616;2022-12-10T06:06:30;0.40;65.60
37678;DHT22;23517;50.390;8.616;2022-12-10T06:09:01;0.50;65.30
37678;DHT22;23517;50.390;8.616;2022-12-10T06:11:28;0.50;64.80
37678;DHT22;23517;50.390;8.616;2022-12-10T06:13:56;0.50;65.70
37678;DHT22;23517;50.390;8.616;2022-12-10T06:16:24;0.60;65.30
37678;DHT22;23517;50.390;8.616;2022-12-10T06:18:53;0.60;64.90
37678;DHT22;23517;50.390;8.616;2022-12-10T06:21:20;0.50;64.70
37678;DHT22;23517;50.390;8.616;2022-12-10T06:23:47;0.60;64.90
37678;DHT22;23517;50.390;8.616;2022-12-10T06:26:18;0.60;65.00
37678;DHT22;23517;50.390;8.616;2022-12-10T06:28:47;0.50;64.90
37678;DHT22;23517;50.390;8.616;2022-12-10T06:31:14;0.60;64.80
37678;DHT22;23517;50.390;8.616;2022-12-10T06:33:42;0.60;65.00
37678;DHT22;23517;50.390;8.616;2022-12-10T06:36:12;0.50;65.00
37678;DHT22;23517;50.390;8.616;2022-12-10T06:38:40;0.50;65.40
37678;DHT22;23517;50.390;8.616;2022-12-10T06:41:08;0.50;65.20
37678;DHT22;23517;50.390;8.616;2022-12-10T06:43:37;0.50;64.90
37678;DHT22;23517;50.390;8.616;2022-12-10T06:46:15;0.50;64.70
37678;DHT22;23517;50.390;8.616;2022-12-10T06:48:43;0.50;65.10
37678;DHT22;23517;50.390;8.616;2022-12-10T06:51:13;0.50;64.80
37678;DHT22;23517;50.390;8.616;2022-12-10T06:53:40;0.50;65.20
37678;DHT22;23517;50.390;8.616;2022-12-10T06:56:09;0.50;65.10
37678;DHT22;23517;50.390;8.616;2022-12-10T06:58:39;0.50;64.70
37678;DHT22;23517;50.390;8.616;2022-12-10T07:01:14;0.50;64.40
37678;DHT22;23517;50.390;8.616;2022-12-10T07:03:42;0.50;64.80
37678;DHT22;23517;50.390;8.616;2022-12-10T07:06:10;0.50;64.90
37678;DHT22;23517;50.390;8.616;2022-12-10T07:08:38;0.50;65.00
37678;DHT22;23517;50.390;8.616;2022-12-10T07:11:11;0.50;65.00
37678;DHT22;23517;50.390;8.616;2022-12-10T07:13:39;0.50;64.90
37678;DHT22;23517;50.390;8.616;2022-12-10T07:18:45;0.50;64.90
37678;DHT22;23517;50.390;8.616;2022-12-10T07:21:23;0.50;65.30
37678;DHT22;23517;50.390;8.616;2022-12-10T07:23:56;0.50;65.00
37678;DHT22;23517;50.390;8.616;2022-12-10T07:26:27;0.40;65.20
37678;DHT22;23517;50.390;8.616;2022-12-10T07:28:54;0.50;65.60
37678;DHT22;23517;50.390;8.616;2022-12-10T07:31:22;0.50;65.20
37678;DHT22;23517;50.390;8.616;2022-12-10T07:33:50;0.50;65.50
37678;DHT22;23517;50.390;8.616;2022-12-10T07:36:18;0.50;65.20
37678;DHT22;23517;50.390;8.616;2022-12-10T07:38:45;0.50;65.30
37678;DHT22;23517;50.390;8.616;2022-12-10T07:41:13;0.50;65.40
37678;DHT22;23517;50.390;8.616;2022-12-10T07:43:41;0.50;64.90
37678;DHT22;23517;50.390;8.616;2022-12-10T07:46:12;0.50;64.90
37678;DHT22;23517;50.390;8.616;2022-12-10T07:48:42;0.50;65.00
37678;DHT22;23517;50.390;8.616;2022-12-10T07:51:10;0.50;66.00
37678;DHT22;23517;50.390;8.616;2022-12-10T07:53:37;0.50;65.10
37678;DHT22;23517;50.390;8.616;2022-12-10T07:56:04;0.60;65.40
37678;DHT22;23517;50.390;8.616;2022-12-10T07:58:32;0.60;65.30
37678;DHT22;23517;50.390;8.616;2022-12-10T08:00:59;0.60;65.20
37678;DHT22;23517;50.390;8.616;2022-12-10T08:03:32;0.60;65.00
37678;DHT22;23517;50.390;8.616;2022-12-10T08:06:03;0.70;64.80
37678;DHT22;23517;50.390;8.616;2022-12-10T08:08:35;0.80;64.10
37678;DHT22;23517;50.390;8.616;2022-12-10T08:11:04;0.80;63.60
37678;DHT22;23517;50.390;8.616;2022-12-10T08:13:32;0.80;63.30
37678;DHT22;23517;50.390;8.616;2022-12-10T08:16:03;0.90;63.80
37678;DHT22;23517;50.390;8.616;2022-12-10T08:18:32;0.90;63.40
37678;DHT22;23517;50.390;8.616;2022-12-10T08:21:03;1.00;63.10
37678;DHT22;23517;50.390;8.616;2022-12-10T08:23:32;1.00;61.60
37678;DHT22;23517;50.390;8.616;2022-12-10T08:26:03;0.90;61.90
37678;DHT22;23517;50.390;8.616;2022-12-10T08:28:32;0.90;62.70
37678;DHT22;23517;50.390;8.616;2022-12-10T08:30:59;0.90;63.00
37678;DHT22;23517;50.390;8.616;2022-12-10T08:33:26;1.00;62.40
37678;DHT22;23517;50.390;8.616;2022-12-10T08:35:57;1.10;62.40
37678;DHT22;23517;50.390;8.616;2022-12-10T08:38:27;1.10;61.50
37678;DHT22;23517;50.390;8.616;2022-12-10T08:40:54;1.10;62.20
37678;DHT22;23517;50.390;8.616;2022-12-10T08:43:23;1.30;60.90
37678;DHT22;23517;50.390;8.616;2022-12-10T08:45:54;1.30;59.90
37678;DHT22;23517;50.390;8.616;2022-12-10T08:48:32;1.40;59.60
37678;DHT22;23517;50.390;8.616;2022-12-10T08:51:03;1.40;59.90
37678;DHT22;23517;50.390;8.616;2022-12-10T08:53:35;1.40;58.90
37678;DHT22;23517;50.390;8.616;2022-12-10T08:56:02;1.40;59.20
37678;DHT22;23517;50.390;8.616;2022-12-10T08:58:30;1.40;59.40
37678;DHT22;23517;50.390;8.616;2022-12-10T09:01:14;1.50;58.40
37678;DHT22;23517;50.390;8.616;2022-12-10T09:03:46;1.50;58.70
37678;DHT22;23517;50.390;8.616;2022-12-10T09:06:20;1.50;58.60
37678;DHT22;23517;50.390;8.616;2022-12-10T09:08:55;1.50;58.50
37678;DHT22;23517;50.390;8.616;2022-12-10T09:11:28;1.50;58.60
37678;DHT22;23517;50.390;8.616;2022-12-10T09:14:01;1.60;58.60
37678;DHT22;23517;50.390;8.616;2022-12-10T09:16:37;1.60;58.00
37678;DHT22;23517;50.390;8.616;2022-12-10T09:19:06;1.50;57.50
37678;DHT22;23517;50.390;8.616;2022-12-10T09:21:40;1.50;58.20
37678;DHT22;23517;50.390;8.616;2022-12-10T09:24:10;1.60;57.90
37678;DHT22;23517;50.390;8.616;2022-12-10T09:26:37;1.60;57.90
37678;DHT22;23517;50.390;8.616;2022-12-10T09:29:12;1.60;57.80
37678;DHT22;23517;50.390;8.616;2022-12-10T09:31:51;1.50;58.00
37678;DHT22;23517;50.390;8.616;2022-12-10T09:34:26;1.50;58.40
37678;DHT22;23517;50.390;8.616;2022-12-10T09:36:54;1.50;58.00
37678;DHT22;23517;50.390;8.616;2022-12-10T09:39:22;1.50;58.20
37678;DHT22;23517;50.390;8.616;2022-12-10T09:44:52;1.60;57.40
37678;DHT22;23517;50.390;8.616;2022-12-10T09:47:33;1.70;58.00
37678;DHT22;23517;50.390;8.616;2022-12-10T09:50:13;1.80;57.20
37678;DHT22;23517;50.390;8.616;2022-12-10T09:52:47;1.80;56.70
37678;DHT22;23517;50.390;8.616;2022-12-10T09:55:24;1.90;56.50
37678;DHT22;23517;50.390;8.616;2022-12-10T09:57:58;1.90;56.30
37678;DHT22;23517;50.390;8.616;2022-12-10T10:00:39;2.00;56.20
37678;DHT22;23517;50.390;8.616;2022-12-10T10:03:12;2.10;55.40
37678;DHT22;23517;50.390;8.616;2022-12-10T10:05:48;2.10;54.80
37678;DHT22;23517;50.390;8.616;2022-12-10T10:08:48;2.00;54.80
37678;DHT22;23517;50.390;8.616;2022-12-10T10:11:22;2.30;54.40
37678;DHT22;23517;50.390;8.616;2022-12-10T10:13:54;1.80;54.60
37678;DHT22;23517;50.390;8.616;2022-12-10T10:16:32;1.80;54.70
37678;DHT22;23517;50.390;8.616;2022-12-10T10:19:10;1.60;55.80
37678;DHT22;23517;50.390;8.616;2022-12-10T10:21:43;1.70;56.50
37678;DHT22;23517;50.390;8.616;2022-12-10T10:24:23;2.00;55.50
37678;DHT22;23517;50.390;8.616;2022-12-10T10:26:56;2.10;54.30
37678;DHT22;23517;50.390;8.616;2022-12-10T10:29:24;2.10;54.30
37678;DHT22;23517;50.390;8.616;2022-12-10T10:34:55;2.00;54.20
37678;DHT22;23517;50.390;8.616;2022-12-10T10:37:31;2.10;54.50
37678;DHT22;23517;50.390;8.616;2022-12-10T10:40:22;2.10;53.90
37678;DHT22;23517;50.390;8.616;2022-12-10T10:42:57;2.00;53.70
37678;DHT22;23517;50.390;8.616;2022-12-10T10:48:23;1.80;53.50
37678;DHT22;23517;50.390;8.616;2022-12-10T10:53:53;1.60;55.60
37678;DHT22;23517;50.390;8.616;2022-12-10T10:56:24;1.40;56.30
37678;DHT22;23517;50.390;8.616;2022-12-10T11:01:21;1.40;56.20
37678;DHT22;23517;50.390;8.616;2022-12-10T11:03:59;1.50;56.40
37678;DHT22;23517;50.390;8.616;2022-12-10T11:06:26;1.50;55.90
37678;DHT22;23517;50.390;8.616;2022-12-10T11:08:57;1.50;56.20
37678;DHT22;23517;50.390;8.616;2022-12-10T11:11:36;1.60;55.60
37678;DHT22;23517;50.390;8.616;2022-12-10T11:14:23;1.70;55.70
37678;DHT22;23517;50.390;8.616;2022-12-10T11:17:11;1.80;55.30
37678;DHT22;23517;50.390;8.616;2022-12-10T11:20:01;1.80;54.80
37678;DHT22;23517;50.390;8.616;2022-12-10T11:25:41;2.00;54.20
37678;DHT22;23517;50.390;8.616;2022-12-10T11:28:47;2.10;54.60
37678;DHT22;23517;50.390;8.616;2022-12-10T11:37:33;2.10;53.00
37678;DHT22;23517;50.390;8.616;2022-12-10T11:40:14;2.30;52.80
37678;DHT22;23517;50.390;8.616;2022-12-10T11:46:20;2.60;51.30
37678;DHT22;23517;50.390;8.616;2022-12-10T11:52:24;2.50;48.90
37678;DHT22;23517;50.390;8.616;2022-12-10T11:58:32;2.30;49.50
37678;DHT22;23517;50.390;8.616;2022-12-10T12:04:40;2.20;51.00
37678;DHT22;23517;50.390;8.616;2022-12-10T12:13:02;1.90;52.20
37678;DHT22;23517;50.390;8.616;2022-12-10T12:15:50;1.90;52.30
37678;DHT22;23517;50.390;8.616;2022-12-10T12:21:14;1.80;52.70
37678;DHT22;23517;50.390;8.616;2022-12-10T12:23:58;1.80;53.20
37678;DHT22;23517;50.390;8.616;2022-12-10T12:26:39;1.90;52.60
37678;DHT22;23517;50.390;8.616;2022-12-10T12:29:19;1.90;52.80
37678;DHT22;23517;50.390;8.616;2022-12-10T12:32:01;1.90;52.40
37678;DHT22;23517;50.390;8.616;2022-12-10T12:34:51;1.90;52.10
37678;DHT22;23517;50.390;8.616;2022-12-10T12:37:41;2.00;52.00
37678;DHT22;23517;50.390;8.616;2022-12-10T12:40:33;2.10;51.70
37678;DHT22;23517;50.390;8.616;2022-12-10T12:43:09;2.00;51.10
37678;DHT22;23517;50.390;8.616;2022-12-10T12:45:43;2.10;50.80
37678;DHT22;23517;50.390;8.616;2022-12-10T12:48:34;2.10;51.50
37678;DHT22;23517;50.390;8.616;2022-12-10T12:51:16;2.10;51.30
37678;DHT22;23517;50.390;8.616;2022-12-10T12:53:53;2.00;51.60
37678;DHT22;23517;50.390;8.616;2022-12-10T12:56:56;2.00;51.60
37678;DHT22;23517;50.390;8.616;2022-12-10T13:05:20;1.90;50.70
37678;DHT22;23517;50.390;8.616;2022-12-10T13:08:20;1.80;50.80
37678;DHT22;23517;50.390;8.616;2022-12-10T13:25:17;1.60;51.90
37678;DHT22;23517;50.390;8.616;2022-12-10T13:27:57;1.60;52.40
37678;DHT22;23517;50.390;8.616;2022-12-10T13:37:13;1.70;52.20
37678;DHT22;23517;50.390;8.616;2022-12-10T13:40:03;1.60;52.60
37678;DHT22;23517;50.390;8.616;2022-12-10T13:42:43;1.60;53.40
37678;DHT22;23517;50.390;8.616;2022-12-10T13:45:35;1.80;52.40
37678;DHT22;23517;50.390;8.616;2022-12-10T13:48:30;1.90;51.60
37678;DHT22;23517;50.390;8.616;2022-12-10T13:51:21;2.10;49.70
37678;DHT22;23517;50.390;8.616;2022-12-10T13:57:46;2.20;48.50
37678;DHT22;23517;50.390;8.616;2022-12-10T14:00:22;2.20;48.80
37678;DHT22;23517;50.390;8.616;2022-12-10T14:06:18;2.10;48.70
37678;DHT22;23517;50.390;8.616;2022-12-10T14:11:37;2.00;49.10
37678;DHT22;23517;50.390;8.616;2022-12-10T14:14:12;1.90;49.10
37678;DHT22;23517;50.390;8.616;2022-12-10T14:16:46;1.80;49.20
37678;DHT22;23517;50.390;8.616;2022-12-10T14:19:14;1.70;49.40
37678;DHT22;23517;50.390;8.616;2022-12-10T14:21:44;1.60;49.60
37678;DHT22;23517;50.390;8.616;2022-12-10T14:29:51;1.40;50.00
37678;DHT22;23517;50.390;8.616;2022-12-10T14:32:35;1.30;50.50
37678;DHT22;23517;50.390;8.616;2022-12-10T14:35:14;1.20;50.20
37678;DHT22;23517;50.390;8.616;2022-12-10T14:37:52;1.10;50.70
37678;DHT22;23517;50.390;8.616;2022-12-10T14:40:38;1.00;51.20
37678;DHT22;23517;50.390;8.616;2022-12-10T14:43:14;1.10;51.70
37678;DHT22;23517;50.390;8.616;2022-12-10T14:45:55;1.10;52.00
37678;DHT22;23517;50.390;8.616;2022-12-10T14:48:23;1.10;52.40
37678;DHT22;23517;50.390;8.616;2022-12-10T14:50:51;1.10;52.30
37678;DHT22;23517;50.390;8.616;2022-12-10T14:53:22;1.10;52.60
37678;DHT22;23517;50.390;8.616;2022-12-10T14:56:04;1.10;52.60
37678;DHT22;23517;50.390;8.616;2022-12-10T14:58:42;1.10;52.50
37678;DHT22;23517;50.390;8.616;2022-12-10T15:01:35;1.10;52.60
37678;DHT22;23517;50.390;8.616;2022-12-10T15:04:05;1.20;52.30
37678;DHT22;23517;50.390;8.616;2022-12-10T15:06:35;1.20;52.40
37678;DHT22;23517;50.390;8.616;2022-12-10T15:09:04;1.20;51.90
37678;DHT22;23517;50.390;8.616;2022-12-10T15:14:03;1.20;51.80
37678;DHT22;23517;50.390;8.616;2022-12-10T15:16:44;1.10;52.10
37678;DHT22;23517;50.390;8.616;2022-12-10T15:19:20;1.20;52.20
37678;DHT22;23517;50.390;8.616;2022-12-10T15:21:59;1.10;52.50
37678;DHT22;23517;50.390;8.616;2022-12-10T15:24:39;1.10;52.50
37678;DHT22;23517;50.390;8.616;2022-12-10T15:27:22;1.10;52.80
37678;DHT22;23517;50.390;8.616;2022-12-10T15:29:50;1.00;52.60
37678;DHT22;23517;50.390;8.616;2022-12-10T15:32:22;1.00;52.80
37678;DHT22;23517;50.390;8.616;2022-12-10T15:35:01;0.90;53.20
37678;DHT22;23517;50.390;8.616;2022-12-10T15:37:35;0.90;53.20
37678;DHT22;23517;50.390;8.616;2022-12-10T15:40:07;0.80;53.20
37678;DHT22;23517;50.390;8.616;2022-12-10T15:42:48;0.80;53.30
37678;DHT22;23517;50.390;8.616;2022-12-10T15:47:47;0.80;52.80
37678;DHT22;23517;50.390;8.616;2022-12-10T15:50:14;0.70;52.50
37678;DHT22;23517;50.390;8.616;2022-12-10T15:52:41;0.70;52.50
37678;DHT22;23517;50.390;8.616;2022-12-10T15:55:11;0.70;52.60
37678;DHT22;23517;50.390;8.616;2022-12-10T15:57:43;0.70;52.50
37678;DHT22;23517;50.390;8.616;2022-12-10T16:00:21;0.60;52.70
37678;DHT22;23517;50.390;8.616;2022-12-10T16:05:33;0.70;52.30
37678;DHT22;23517;50.390;8.616;2022-12-10T16:08:26;0.70;52.10
37678;DHT22;23517;50.390;8.616;2022-12-10T16:10:57;0.70;52.70
37678;DHT22;23517;50.390;8.616;2022-12-10T16:13:33;0.70;52.80
37678;DHT22;23517;50.390;8.616;2022-12-10T16:16:05;0.60;52.60
37678;DHT22;23517;50.390;8.616;2022-12-10T16:18:35;0.70;52.90
37678;DHT22;23517;50.390;8.616;2022-12-10T16:21:04;0.70;53.20
37678;DHT22;23517;50.390;8.616;2022-12-10T16:23:32;0.70;53.00
37678;DHT22;23517;50.390;8.616;2022-12-10T16:25:59;0.60;53.60
37678;DHT22;23517;50.390;8.616;2022-12-10T16:28:27;0.60;54.20
37678;DHT22;23517;50.390;8.616;2022-12-10T16:30:56;0.60;55.20
37678;DHT22;23517;50.390;8.616;2022-12-10T16:33:25;0.50;55.90
37678;DHT22;23517;50.390;8.616;2022-12-10T16:35:53;0.50;56.10
37678;DHT22;23517;50.390;8.616;2022-12-10T16:38:24;0.40;56.20
37678;DHT22;23517;50.390;8.616;2022-12-10T16:40:51;0.40;56.80
37678;DHT22;23517;50.390;8.616;2022-12-10T16:43:20;0.40;56.90
37678;DHT22;23517;50.390;8.616;2022-12-10T16:45:52;0.40;57.00
37678;DHT22;23517;50.390;8.616;2022-12-10T16:48:19;0.40;56.60
37678;DHT22;23517;50.390;8.616;2022-12-10T16:50:50;0.30;56.50
37678;DHT22;23517;50.390;8.616;2022-12-10T16:53:27;0.30;56.20
37678;DHT22;23517;50.390;8.616;2022-12-10T16:55:55;0.30;57.20
37678;DHT22;23517;50.390;8.616;2022-12-10T16:58:23;0.20;55.80
37678;DHT22;23517;50.390;8.616;2022-12-10T17:00:52;0.20;56.30
37678;DHT22;23517;50.390;8.616;2022-12-10T17:03:23;0.20;56.00
37678;DHT22;23517;50.390;8.616;2022-12-10T17:05:57;0.20;56.10
37678;DHT22;23517;50.390;8.616;2022-12-10T17:08:29;0.10;56.20
37678;DHT22;23517;50.390;8.616;2022-12-10T17:10:57;0.00;56.40
37678;DHT22;23517;50.390;8.616;2022-12-10T17:13:43;0.10;56.50
37678;DHT22;23517;50.390;8.616;2022-12-10T17:16:17;0.00;56.30
37678;DHT22;23517;50.390;8.616;2022-12-10T17:18:46;0.00;56.60
37678;DHT22;23517;50.390;8.616;2022-12-10T17:21:13;-0.10;56.90
37678;DHT22;23517;50.390;8.616;2022-12-10T17:23:39;-0.10;57.50
37678;DHT22;23517;50.390;8.616;2022-12-10T17:26:26;-0.20;57.20
37678;DHT22;23517;50.390;8.616;2022-12-10T17:29:08;-0.30;57.40
37678;DHT22;23517;50.390;8.616;2022-12-10T17:31:39;-0.30;58.00
37678;DHT22;23517;50.390;8.616;2022-12-10T17:34:06;-0.30;58.10
37678;DHT22;23517;50.390;8.616;2022-12-10T17:36:33;-0.40;58.10
37678;DHT22;23517;50.390;8.616;2022-12-10T17:39:00;-0.40;58.40
37678;DHT22;23517;50.390;8.616;2022-12-10T17:41:30;-0.40;58.40
37678;DHT22;23517;50.390;8.616;2022-12-10T17:43:56;-0.50;58.40
37678;DHT22;23517;50.390;8.616;2022-12-10T17:46:24;-0.50;58.70
37678;DHT22;23517;50.390;8.616;2022-12-10T17:48:51;-0.50;58.70
37678;DHT22;23517;50.390;8.616;2022-12-10T17:51:19;-0.50;58.40
37678;DHT22;23517;50.390;8.616;2022-12-10T17:53:46;-0.50;58.20
37678;DHT22;23517;50.390;8.616;2022-12-10T17:56:16;-0.50;58.10
37678;DHT22;23517;50.390;8.616;2022-12-10T17:58:48;-0.60;57.60
37678;DHT22;23517;50.390;8.616;2022-12-10T18:01:16;-0.60;57.20
37678;DHT22;23517;50.390;8.616;2022-12-10T18:03:44;-0.60;57.00
37678;DHT22;23517;50.390;8.616;2022-12-10T18:06:18;-0.60;57.30
37678;DHT22;23517;50.390;8.616;2022-12-10T18:08:47;-0.60;57.00
37678;DHT22;23517;50.390;8.616;2022-12-10T18:11:17;-0.70;57.20
37678;DHT22;23517;50.390;8.616;2022-12-10T18:13:46;-0.60;57.70
37678;DHT22;23517;50.390;8.616;2022-12-10T18:16:19;-0.60;57.20
37678;DHT22;23517;50.390;8.616;2022-12-10T18:18:49;-0.60;57.50